Hebbronville, Texas
Current Conditions -  °F | °C
As of 12:55 PM on Thursday 23 Oct 2014 (Local Time) from KHBV Reporting Station
Scattered Clouds Scattered Clouds  
Wind Chill: 76°   Ceiling: Unl
Heat Index: 76°   Visibility: 10mi
Dew Point: 60°   Wind: 0mph
Humidity: 59%   Direction: NA
Pressure: 30.13"   Gusts: NA
Location:  27.31°N, 98.68°W
Report Text: KHBV 231755Z AUTO 00000KT 10SM SCT090 24/16 A3013 RMK AO2 T02420158 PWINO
Loading
Personal Weather Stations






























Interactive Weather Map
Tropical Storm Tracking
New forecast layout! Learn more

10-Day Weather Forecast

Advertisements
Track Severe Weather on mobile